sensor_id;sensor_type;location;lat;lon;timestamp;P1;durP1;ratioP1;P2;durP2;ratioP2
34481;SDS011;20720;48.886;9.388;2023-05-02T00:00:13;11.57;;;4.93;;
34481;SDS011;20720;48.886;9.388;2023-05-02T00:02:38;8.13;;;5.35;;
34481;SDS011;20720;48.886;9.388;2023-05-02T00:05:05;8.63;;;4.65;;
34481;SDS011;20720;48.886;9.388;2023-05-02T00:07:30;7.00;;;5.20;;
34481;SDS011;20720;48.886;9.388;2023-05-02T00:09:56;8.27;;;5.22;;
34481;SDS011;20720;48.886;9.388;2023-05-02T00:12:22;5.82;;;4.70;;
34481;SDS011;20720;48.886;9.388;2023-05-02T00:14:47;6.30;;;5.25;;
34481;SDS011;20720;48.886;9.388;2023-05-02T00:17:21;10.18;;;5.82;;
34481;SDS011;20720;48.886;9.388;2023-05-02T00:19:47;8.27;;;5.95;;
34481;SDS011;20720;48.886;9.388;2023-05-02T00:22:12;8.25;;;5.38;;
34481;SDS011;20720;48.886;9.388;2023-05-02T00:24:37;7.88;;;5.72;;
34481;SDS011;20720;48.886;9.388;2023-05-02T00:27:03;9.40;;;5.30;;
34481;SDS011;20720;48.886;9.388;2023-05-02T00:29:29;6.95;;;5.38;;
34481;SDS011;20720;48.886;9.388;2023-05-02T00:31:54;7.50;;;5.70;;
34481;SDS011;20720;48.886;9.388;2023-05-02T00:34:20;8.05;;;5.50;;
34481;SDS011;20720;48.886;9.388;2023-05-02T00:36:46;8.30;;;5.45;;
34481;SDS011;20720;48.886;9.388;2023-05-02T00:39:13;7.18;;;5.57;;
34481;SDS011;20720;48.886;9.388;2023-05-02T00:41:38;6.35;;;5.07;;
34481;SDS011;20720;48.886;9.388;2023-05-02T00:44:03;11.50;;;5.60;;
34481;SDS011;20720;48.886;9.388;2023-05-02T00:46:29;9.02;;;5.22;;
34481;SDS011;20720;48.886;9.388;2023-05-02T00:48:54;7.30;;;4.78;;
34481;SDS011;20720;48.886;9.388;2023-05-02T00:51:19;8.85;;;5.03;;
34481;SDS011;20720;48.886;9.388;2023-05-02T00:53:45;7.18;;;5.00;;
34481;SDS011;20720;48.886;9.388;2023-05-02T00:56:10;7.65;;;5.07;;
34481;SDS011;20720;48.886;9.388;2023-05-02T00:58:36;6.63;;;4.78;;
34481;SDS011;20720;48.886;9.388;2023-05-02T01:01:14;8.55;;;5.55;;
34481;SDS011;20720;48.886;9.388;2023-05-02T01:12:31;7.05;;;5.22;;
34481;SDS011;20720;48.886;9.388;2023-05-02T01:14:41;6.47;;;4.55;;
34481;SDS011;20720;48.886;9.388;2023-05-02T01:17:10;8.25;;;5.03;;
34481;SDS011;20720;48.886;9.388;2023-05-02T01:19:39;7.07;;;4.47;;
34481;SDS011;20720;48.886;9.388;2023-05-02T01:22:10;7.13;;;5.00;;
34481;SDS011;20720;48.886;9.388;2023-05-02T01:24:42;8.35;;;5.20;;
34481;SDS011;20720;48.886;9.388;2023-05-02T01:29:43;7.68;;;5.30;;
34481;SDS011;20720;48.886;9.388;2023-05-02T01:32:10;7.70;;;5.07;;
34481;SDS011;20720;48.886;9.388;2023-05-02T01:34:38;6.70;;;4.90;;
34481;SDS011;20720;48.886;9.388;2023-05-02T01:37:05;6.35;;;4.78;;
34481;SDS011;20720;48.886;9.388;2023-05-02T01:39:34;8.10;;;5.78;;
34481;SDS011;20720;48.886;9.388;2023-05-02T01:42:02;7.57;;;5.32;;
34481;SDS011;20720;48.886;9.388;2023-05-02T01:44:29;10.52;;;5.00;;
34481;SDS011;20720;48.886;9.388;2023-05-02T01:46:57;5.80;;;4.53;;
34481;SDS011;20720;48.886;9.388;2023-05-02T01:49:24;8.20;;;5.47;;
34481;SDS011;20720;48.886;9.388;2023-05-02T01:51:50;7.88;;;5.53;;
34481;SDS011;20720;48.886;9.388;2023-05-02T01:54:17;8.32;;;4.90;;
34481;SDS011;20720;48.886;9.388;2023-05-02T01:56:44;8.35;;;5.63;;
34481;SDS011;20720;48.886;9.388;2023-05-02T01:59:11;8.13;;;5.90;;
34481;SDS011;20720;48.886;9.388;2023-05-02T02:01:46;6.63;;;4.80;;
34481;SDS011;20720;48.886;9.388;2023-05-02T02:04:14;8.68;;;5.60;;
34481;SDS011;20720;48.886;9.388;2023-05-02T02:06:43;9.15;;;4.50;;
34481;SDS011;20720;48.886;9.388;2023-05-02T02:09:12;7.15;;;4.80;;
34481;SDS011;20720;48.886;9.388;2023-05-02T02:14:31;7.68;;;5.43;;
34481;SDS011;20720;48.886;9.388;2023-05-02T02:17:00;7.78;;;5.38;;
34481;SDS011;20720;48.886;9.388;2023-05-02T02:19:26;9.90;;;6.68;;
34481;SDS011;20720;48.886;9.388;2023-05-02T02:21:54;8.13;;;5.03;;
34481;SDS011;20720;48.886;9.388;2023-05-02T02:24:25;5.88;;;4.65;;
34481;SDS011;20720;48.886;9.388;2023-05-02T02:26:51;9.15;;;5.65;;
34481;SDS011;20720;48.886;9.388;2023-05-02T02:29:17;7.97;;;5.28;;
34481;SDS011;20720;48.886;9.388;2023-05-02T02:31:42;7.53;;;5.38;;
34481;SDS011;20720;48.886;9.388;2023-05-02T02:34:09;9.43;;;6.47;;
34481;SDS011;20720;48.886;9.388;2023-05-02T02:36:36;7.53;;;5.45;;
34481;SDS011;20720;48.886;9.388;2023-05-02T02:42:02;7.45;;;5.20;;
34481;SDS011;20720;48.886;9.388;2023-05-02T02:44:59;7.93;;;6.05;;
34481;SDS011;20720;48.886;9.388;2023-05-02T02:47:40;7.00;;;5.40;;
34481;SDS011;20720;48.886;9.388;2023-05-02T02:53:07;7.28;;;5.40;;
34481;SDS011;20720;48.886;9.388;2023-05-02T03:01:10;9.30;;;5.53;;
34481;SDS011;20720;48.886;9.388;2023-05-02T03:03:41;7.80;;;5.40;;
34481;SDS011;20720;48.886;9.388;2023-05-02T03:06:08;7.75;;;5.43;;
34481;SDS011;20720;48.886;9.388;2023-05-02T03:08:40;6.78;;;5.53;;
34481;SDS011;20720;48.886;9.388;2023-05-02T03:11:07;7.63;;;5.40;;
34481;SDS011;20720;48.886;9.388;2023-05-02T03:13:34;9.35;;;5.82;;
34481;SDS011;20720;48.886;9.388;2023-05-02T03:21:18;7.57;;;5.40;;
34481;SDS011;20720;48.886;9.388;2023-05-02T03:23:44;6.82;;;5.07;;
34481;SDS011;20720;48.886;9.388;2023-05-02T03:26:09;9.50;;;5.60;;
34481;SDS011;20720;48.886;9.388;2023-05-02T03:28:34;9.13;;;5.40;;
34481;SDS011;20720;48.886;9.388;2023-05-02T03:31:00;7.47;;;5.53;;
34481;SDS011;20720;48.886;9.388;2023-05-02T03:33:25;9.32;;;5.53;;
34481;SDS011;20720;48.886;9.388;2023-05-02T03:35:50;6.90;;;5.63;;
34481;SDS011;20720;48.886;9.388;2023-05-02T03:38:15;9.50;;;5.85;;
34481;SDS011;20720;48.886;9.388;2023-05-02T03:40:40;10.25;;;6.53;;
34481;SDS011;20720;48.886;9.388;2023-05-02T03:43:06;8.25;;;5.85;;
34481;SDS011;20720;48.886;9.388;2023-05-02T03:45:31;9.48;;;6.00;;
34481;SDS011;20720;48.886;9.388;2023-05-02T03:47:56;9.60;;;5.97;;
34481;SDS011;20720;48.886;9.388;2023-05-02T03:50:22;9.93;;;6.40;;
34481;SDS011;20720;48.886;9.388;2023-05-02T03:52:47;8.00;;;5.88;;
34481;SDS011;20720;48.886;9.388;2023-05-02T03:55:12;9.43;;;6.10;;
34481;SDS011;20720;48.886;9.388;2023-05-02T03:57:38;7.63;;;5.20;;
34481;SDS011;20720;48.886;9.388;2023-05-02T04:00:03;9.00;;;5.97;;
34481;SDS011;20720;48.886;9.388;2023-05-02T04:02:29;8.60;;;5.95;;
34481;SDS011;20720;48.886;9.388;2023-05-02T04:04:55;9.35;;;6.25;;
34481;SDS011;20720;48.886;9.388;2023-05-02T04:07:20;8.32;;;6.32;;
34481;SDS011;20720;48.886;9.388;2023-05-02T04:09:46;8.77;;;5.90;;
34481;SDS011;20720;48.886;9.388;2023-05-02T04:12:11;9.15;;;6.15;;
34481;SDS011;20720;48.886;9.388;2023-05-02T04:14:37;10.48;;;5.57;;
34481;SDS011;20720;48.886;9.388;2023-05-02T04:17:02;8.35;;;6.40;;
34481;SDS011;20720;48.886;9.388;2023-05-02T04:19:28;7.13;;;5.80;;
34481;SDS011;20720;48.886;9.388;2023-05-02T04:21:53;8.25;;;5.93;;
34481;SDS011;20720;48.886;9.388;2023-05-02T04:24:18;8.75;;;5.68;;
34481;SDS011;20720;48.886;9.388;2023-05-02T04:26:44;8.20;;;5.63;;
34481;SDS011;20720;48.886;9.388;2023-05-02T04:29:11;9.02;;;5.93;;
34481;SDS011;20720;48.886;9.388;2023-05-02T04:31:37;7.57;;;5.55;;
34481;SDS011;20720;48.886;9.388;2023-05-02T04:34:03;7.50;;;5.68;;
34481;SDS011;20720;48.886;9.388;2023-05-02T04:36:28;7.40;;;5.80;;
34481;SDS011;20720;48.886;9.388;2023-05-02T04:38:53;7.43;;;5.28;;
34481;SDS011;20720;48.886;9.388;2023-05-02T04:41:19;9.93;;;5.65;;
34481;SDS011;20720;48.886;9.388;2023-05-02T04:43:45;7.35;;;5.70;;
34481;SDS011;20720;48.886;9.388;2023-05-02T04:46:10;7.47;;;5.35;;
34481;SDS011;20720;48.886;9.388;2023-05-02T04:48:36;8.00;;;5.20;;
34481;SDS011;20720;48.886;9.388;2023-05-02T04:51:05;7.68;;;5.65;;
34481;SDS011;20720;48.886;9.388;2023-05-02T04:53:31;8.75;;;5.90;;
34481;SDS011;20720;48.886;9.388;2023-05-02T04:55:56;7.30;;;5.78;;
34481;SDS011;20720;48.886;9.388;2023-05-02T04:58:21;12.85;;;5.90;;
34481;SDS011;20720;48.886;9.388;2023-05-02T05:00:47;7.30;;;5.70;;
34481;SDS011;20720;48.886;9.388;2023-05-02T05:03:12;7.68;;;5.90;;
34481;SDS011;20720;48.886;9.388;2023-05-02T05:05:37;10.73;;;6.53;;
34481;SDS011;20720;48.886;9.388;2023-05-02T05:08:02;8.13;;;5.97;;
34481;SDS011;20720;48.886;9.388;2023-05-02T05:10:28;7.10;;;5.60;;
34481;SDS011;20720;48.886;9.388;2023-05-02T05:12:53;9.68;;;6.53;;
34481;SDS011;20720;48.886;9.388;2023-05-02T05:15:19;10.07;;;6.25;;
34481;SDS011;20720;48.886;9.388;2023-05-02T05:17:49;8.25;;;5.30;;
34481;SDS011;20720;48.886;9.388;2023-05-02T05:20:14;9.25;;;5.65;;
34481;SDS011;20720;48.886;9.388;2023-05-02T05:22:40;8.68;;;5.85;;
34481;SDS011;20720;48.886;9.388;2023-05-02T05:25:06;9.02;;;5.65;;
34481;SDS011;20720;48.886;9.388;2023-05-02T05:27:32;8.00;;;5.35;;
34481;SDS011;20720;48.886;9.388;2023-05-02T05:29:58;8.73;;;6.10;;
34481;SDS011;20720;48.886;9.388;2023-05-02T05:32:23;8.65;;;6.18;;
34481;SDS011;20720;48.886;9.388;2023-05-02T05:34:52;7.32;;;5.85;;
34481;SDS011;20720;48.886;9.388;2023-05-02T05:37:18;9.70;;;6.00;;
34481;SDS011;20720;48.886;9.388;2023-05-02T05:39:44;8.55;;;5.38;;
34481;SDS011;20720;48.886;9.388;2023-05-02T05:42:09;8.32;;;5.68;;
34481;SDS011;20720;48.886;9.388;2023-05-02T05:44:36;12.00;;;6.60;;
34481;SDS011;20720;48.886;9.388;2023-05-02T05:47:02;9.52;;;7.05;;
34481;SDS011;20720;48.886;9.388;2023-05-02T05:49:27;10.40;;;7.80;;
34481;SDS011;20720;48.886;9.388;2023-05-02T05:51:52;8.02;;;6.05;;
34481;SDS011;20720;48.886;9.388;2023-05-02T05:54:18;7.70;;;6.05;;
34481;SDS011;20720;48.886;9.388;2023-05-02T05:56:43;7.43;;;6.15;;
34481;SDS011;20720;48.886;9.388;2023-05-02T05:59:09;8.77;;;6.63;;
34481;SDS011;20720;48.886;9.388;2023-05-02T06:01:34;10.35;;;6.55;;
34481;SDS011;20720;48.886;9.388;2023-05-02T06:04:00;8.07;;;6.10;;
34481;SDS011;20720;48.886;9.388;2023-05-02T06:06:26;8.27;;;5.93;;
34481;SDS011;20720;48.886;9.388;2023-05-02T06:08:52;13.07;;;6.07;;
34481;SDS011;20720;48.886;9.388;2023-05-02T06:11:18;7.18;;;5.50;;
34481;SDS011;20720;48.886;9.388;2023-05-02T06:13:43;7.95;;;6.30;;
34481;SDS011;20720;48.886;9.388;2023-05-02T06:16:08;5.93;;;5.18;;
34481;SDS011;20720;48.886;9.388;2023-05-02T06:18:33;8.40;;;6.50;;
34481;SDS011;20720;48.886;9.388;2023-05-02T06:21:02;8.40;;;6.28;;
34481;SDS011;20720;48.886;9.388;2023-05-02T06:23:30;7.05;;;5.28;;
34481;SDS011;20720;48.886;9.388;2023-05-02T06:25:59;8.77;;;5.82;;
34481;SDS011;20720;48.886;9.388;2023-05-02T06:28:28;9.63;;;6.30;;
34481;SDS011;20720;48.886;9.388;2023-05-02T06:30:57;10.07;;;6.03;;
34481;SDS011;20720;48.886;9.388;2023-05-02T06:33:24;10.95;;;5.70;;
34481;SDS011;20720;48.886;9.388;2023-05-02T06:35:50;8.10;;;6.07;;
34481;SDS011;20720;48.886;9.388;2023-05-02T06:38:17;7.22;;;5.78;;
34481;SDS011;20720;48.886;9.388;2023-05-02T06:40:42;6.13;;;5.50;;
34481;SDS011;20720;48.886;9.388;2023-05-02T06:43:09;9.13;;;6.53;;
34481;SDS011;20720;48.886;9.388;2023-05-02T06:45:34;8.45;;;6.63;;
34481;SDS011;20720;48.886;9.388;2023-05-02T06:48:00;7.88;;;5.55;;
34481;SDS011;20720;48.886;9.388;2023-05-02T06:50:25;9.02;;;6.70;;
34481;SDS011;20720;48.886;9.388;2023-05-02T06:52:50;6.10;;;4.97;;
34481;SDS011;20720;48.886;9.388;2023-05-02T06:55:15;7.50;;;5.80;;
34481;SDS011;20720;48.886;9.388;2023-05-02T06:57:41;8.18;;;6.45;;
34481;SDS011;20720;48.886;9.388;2023-05-02T07:00:06;8.93;;;6.10;;
34481;SDS011;20720;48.886;9.388;2023-05-02T07:02:32;8.57;;;6.75;;
34481;SDS011;20720;48.886;9.388;2023-05-02T07:04:57;8.80;;;6.97;;
34481;SDS011;20720;48.886;9.388;2023-05-02T07:07:22;9.85;;;6.65;;
34481;SDS011;20720;48.886;9.388;2023-05-02T07:09:48;9.95;;;7.90;;
34481;SDS011;20720;48.886;9.388;2023-05-02T07:12:13;10.02;;;7.00;;
34481;SDS011;20720;48.886;9.388;2023-05-02T07:14:38;8.93;;;6.55;;
34481;SDS011;20720;48.886;9.388;2023-05-02T07:17:03;8.90;;;6.95;;
34481;SDS011;20720;48.886;9.388;2023-05-02T07:19:29;11.30;;;8.60;;
34481;SDS011;20720;48.886;9.388;2023-05-02T07:21:54;11.52;;;7.90;;
34481;SDS011;20720;48.886;9.388;2023-05-02T07:24:19;11.93;;;8.68;;
34481;SDS011;20720;48.886;9.388;2023-05-02T07:26:45;10.15;;;7.75;;
34481;SDS011;20720;48.886;9.388;2023-05-02T07:29:10;10.40;;;8.50;;
34481;SDS011;20720;48.886;9.388;2023-05-02T07:31:35;11.32;;;8.35;;
34481;SDS011;20720;48.886;9.388;2023-05-02T07:34:01;11.40;;;8.30;;
34481;SDS011;20720;48.886;9.388;2023-05-02T07:36:26;11.43;;;8.30;;
34481;SDS011;20720;48.886;9.388;2023-05-02T07:38:52;11.02;;;9.23;;
34481;SDS011;20720;48.886;9.388;2023-05-02T07:41:17;11.70;;;9.15;;
34481;SDS011;20720;48.886;9.388;2023-05-02T07:43:43;10.02;;;8.65;;
34481;SDS011;20720;48.886;9.388;2023-05-02T07:46:08;10.77;;;8.63;;
34481;SDS011;20720;48.886;9.388;2023-05-02T07:48:34;13.18;;;8.80;;
34481;SDS011;20720;48.886;9.388;2023-05-02T07:51:05;13.00;;;9.63;;
34481;SDS011;20720;48.886;9.388;2023-05-02T07:53:31;12.20;;;9.15;;
34481;SDS011;20720;48.886;9.388;2023-05-02T07:55:57;11.70;;;9.45;;
34481;SDS011;20720;48.886;9.388;2023-05-02T07:58:22;10.93;;;9.20;;
34481;SDS011;20720;48.886;9.388;2023-05-02T08:00:47;11.05;;;9.85;;
34481;SDS011;20720;48.886;9.388;2023-05-02T08:03:12;11.55;;;9.57;;
34481;SDS011;20720;48.886;9.388;2023-05-02T08:05:38;13.52;;;9.18;;
34481;SDS011;20720;48.886;9.388;2023-05-02T08:08:03;12.45;;;9.85;;
34481;SDS011;20720;48.886;9.388;2023-05-02T08:10:28;15.25;;;10.05;;
34481;SDS011;20720;48.886;9.388;2023-05-02T08:12:54;15.88;;;10.30;;
34481;SDS011;20720;48.886;9.388;2023-05-02T08:15:19;13.75;;;10.77;;
34481;SDS011;20720;48.886;9.388;2023-05-02T08:17:44;13.68;;;10.38;;
34481;SDS011;20720;48.886;9.388;2023-05-02T08:20:10;11.90;;;9.57;;
34481;SDS011;20720;48.886;9.388;2023-05-02T08:22:35;11.05;;;9.05;;
34481;SDS011;20720;48.886;9.388;2023-05-02T08:25:00;11.25;;;8.93;;
34481;SDS011;20720;48.886;9.388;2023-05-02T08:27:26;12.48;;;9.88;;
34481;SDS011;20720;48.886;9.388;2023-05-02T08:29:51;11.77;;;9.10;;
34481;SDS011;20720;48.886;9.388;2023-05-02T08:32:16;10.68;;;9.15;;
34481;SDS011;20720;48.886;9.388;2023-05-02T08:34:41;11.15;;;9.30;;
34481;SDS011;20720;48.886;9.388;2023-05-02T08:37:09;10.65;;;8.75;;
34481;SDS011;20720;48.886;9.388;2023-05-02T08:39:36;12.57;;;9.82;;
34481;SDS011;20720;48.886;9.388;2023-05-02T08:42:04;10.82;;;9.07;;
34481;SDS011;20720;48.886;9.388;2023-05-02T08:44:31;11.38;;;9.80;;
34481;SDS011;20720;48.886;9.388;2023-05-02T08:46:56;12.55;;;10.60;;
34481;SDS011;20720;48.886;9.388;2023-05-02T08:49:24;13.48;;;10.02;;
34481;SDS011;20720;48.886;9.388;2023-05-02T08:51:50;10.52;;;8.95;;
34481;SDS011;20720;48.886;9.388;2023-05-02T08:54:19;10.73;;;9.38;;
34481;SDS011;20720;48.886;9.388;2023-05-02T08:56:45;11.20;;;9.60;;
34481;SDS011;20720;48.886;9.388;2023-05-02T08:59:11;14.52;;;10.00;;
34481;SDS011;20720;48.886;9.388;2023-05-02T09:01:36;12.35;;;9.52;;
34481;SDS011;20720;48.886;9.388;2023-05-02T09:04:08;12.55;;;10.02;;
34481;SDS011;20720;48.886;9.388;2023-05-02T09:06:33;12.30;;;8.88;;
34481;SDS011;20720;48.886;9.388;2023-05-02T09:09:00;13.43;;;10.18;;
34481;SDS011;20720;48.886;9.388;2023-05-02T09:11:25;12.30;;;9.93;;
34481;SDS011;20720;48.886;9.388;2023-05-02T09:13:50;13.30;;;9.90;;
34481;SDS011;20720;48.886;9.388;2023-05-02T09:21:11;12.60;;;10.35;;
34481;SDS011;20720;48.886;9.388;2023-05-02T09:23:42;11.50;;;9.88;;
34481;SDS011;20720;48.886;9.388;2023-05-02T09:26:15;12.70;;;9.80;;
34481;SDS011;20720;48.886;9.388;2023-05-02T09:28:46;11.05;;;9.48;;
34481;SDS011;20720;48.886;9.388;2023-05-02T09:31:19;13.95;;;9.57;;
34481;SDS011;20720;48.886;9.388;2023-05-02T09:33:46;12.57;;;10.38;;
34481;SDS011;20720;48.886;9.388;2023-05-02T09:36:12;14.77;;;10.48;;
34481;SDS011;20720;48.886;9.388;2023-05-02T09:38:42;12.30;;;10.25;;
34481;SDS011;20720;48.886;9.388;2023-05-02T09:41:09;13.82;;;9.82;;
34481;SDS011;20720;48.886;9.388;2023-05-02T09:43:35;12.25;;;9.68;;
34481;SDS011;20720;48.886;9.388;2023-05-02T09:46:03;11.88;;;9.43;;
34481;SDS011;20720;48.886;9.388;2023-05-02T09:48:31;11.73;;;9.88;;
34481;SDS011;20720;48.886;9.388;2023-05-02T09:50:57;11.32;;;10.10;;
34481;SDS011;20720;48.886;9.388;2023-05-02T09:53:24;11.30;;;9.60;;
34481;SDS011;20720;48.886;9.388;2023-05-02T09:56:03;11.57;;;10.05;;
34481;SDS011;20720;48.886;9.388;2023-05-02T09:58:29;12.88;;;10.35;;
34481;SDS011;20720;48.886;9.388;2023-05-02T10:00:55;10.68;;;9.23;;
34481;SDS011;20720;48.886;9.388;2023-05-02T10:03:21;12.38;;;9.35;;
34481;SDS011;20720;48.886;9.388;2023-05-02T10:05:48;16.05;;;10.95;;
34481;SDS011;20720;48.886;9.388;2023-05-02T10:08:14;13.57;;;11.65;;
34481;SDS011;20720;48.886;9.388;2023-05-02T10:10:44;12.55;;;10.68;;
34481;SDS011;20720;48.886;9.388;2023-05-02T10:13:14;12.18;;;10.00;;
34481;SDS011;20720;48.886;9.388;2023-05-02T10:15:43;12.30;;;9.95;;
34481;SDS011;20720;48.886;9.388;2023-05-02T10:18:11;11.32;;;9.90;;
34481;SDS011;20720;48.886;9.388;2023-05-02T10:20:42;11.00;;;8.82;;
34481;SDS011;20720;48.886;9.388;2023-05-02T10:23:20;11.40;;;9.45;;
34481;SDS011;20720;48.886;9.388;2023-05-02T10:25:46;11.98;;;8.98;;
34481;SDS011;20720;48.886;9.388;2023-05-02T10:28:12;14.45;;;9.13;;
34481;SDS011;20720;48.886;9.388;2023-05-02T10:30:38;10.50;;;8.55;;
34481;SDS011;20720;48.886;9.388;2023-05-02T10:33:05;8.73;;;7.82;;
34481;SDS011;20720;48.886;9.388;2023-05-02T10:35:30;10.48;;;8.85;;
34481;SDS011;20720;48.886;9.388;2023-05-02T10:37:56;11.00;;;9.70;;
34481;SDS011;20720;48.886;9.388;2023-05-02T10:40:23;11.13;;;9.05;;
34481;SDS011;20720;48.886;9.388;2023-05-02T10:42:49;11.07;;;9.30;;
34481;SDS011;20720;48.886;9.388;2023-05-02T10:50:45;8.70;;;7.75;;
34481;SDS011;20720;48.886;9.388;2023-05-02T10:58:50;9.23;;;8.23;;
34481;SDS011;20720;48.886;9.388;2023-05-02T11:06:25;9.65;;;8.00;;
34481;SDS011;20720;48.886;9.388;2023-05-02T11:08:51;8.52;;;7.70;;
34481;SDS011;20720;48.886;9.388;2023-05-02T11:11:36;10.23;;;7.70;;
34481;SDS011;20720;48.886;9.388;2023-05-02T11:14:06;10.25;;;8.43;;
34481;SDS011;20720;48.886;9.388;2023-05-02T11:19:26;10.00;;;7.75;;
34481;SDS011;20720;48.886;9.388;2023-05-02T11:21:52;8.52;;;7.32;;
34481;SDS011;20720;48.886;9.388;2023-05-02T11:24:38;7.47;;;6.78;;
34481;SDS011;20720;48.886;9.388;2023-05-02T11:29:54;10.45;;;7.78;;
34481;SDS011;20720;48.886;9.388;2023-05-02T11:32:20;10.13;;;8.85;;
34481;SDS011;20720;48.886;9.388;2023-05-02T11:34:46;9.65;;;8.13;;
34481;SDS011;20720;48.886;9.388;2023-05-02T11:37:16;9.35;;;7.82;;
34481;SDS011;20720;48.886;9.388;2023-05-02T11:39:42;10.90;;;8.70;;
34481;SDS011;20720;48.886;9.388;2023-05-02T11:42:07;11.77;;;8.85;;
34481;SDS011;20720;48.886;9.388;2023-05-02T11:44:32;11.35;;;9.15;;
34481;SDS011;20720;48.886;9.388;2023-05-02T11:46:59;11.75;;;8.35;;
34481;SDS011;20720;48.886;9.388;2023-05-02T11:49:25;9.15;;;7.95;;
34481;SDS011;20720;48.886;9.388;2023-05-02T11:51:51;8.45;;;7.50;;
34481;SDS011;20720;48.886;9.388;2023-05-02T11:54:19;9.48;;;8.10;;
34481;SDS011;20720;48.886;9.388;2023-05-02T11:56:46;8.70;;;7.38;;
34481;SDS011;20720;48.886;9.388;2023-05-02T11:59:12;9.38;;;8.10;;
34481;SDS011;20720;48.886;9.388;2023-05-02T12:01:46;10.57;;;9.47;;
34481;SDS011;20720;48.886;9.388;2023-05-02T12:04:12;10.43;;;8.27;;
34481;SDS011;20720;48.886;9.388;2023-05-02T12:06:37;9.20;;;7.93;;
34481;SDS011;20720;48.886;9.388;2023-05-02T12:09:09;8.38;;;7.47;;
34481;SDS011;20720;48.886;9.388;2023-05-02T12:11:38;9.13;;;7.97;;
34481;SDS011;20720;48.886;9.388;2023-05-02T12:14:03;8.40;;;7.30;;
34481;SDS011;20720;48.886;9.388;2023-05-02T12:16:32;9.98;;;7.07;;
34481;SDS011;20720;48.886;9.388;2023-05-02T12:18:58;8.25;;;7.35;;
34481;SDS011;20720;48.886;9.388;2023-05-02T12:21:25;10.32;;;9.15;;
34481;SDS011;20720;48.886;9.388;2023-05-02T12:23:53;12.10;;;10.55;;
34481;SDS011;20720;48.886;9.388;2023-05-02T12:26:22;12.20;;;10.93;;
34481;SDS011;20720;48.886;9.388;2023-05-02T12:28:52;11.80;;;10.60;;
34481;SDS011;20720;48.886;9.388;2023-05-02T12:31:22;13.82;;;10.60;;
34481;SDS011;20720;48.886;9.388;2023-05-02T12:33:48;13.68;;;12.27;;
34481;SDS011;20720;48.886;9.388;2023-05-02T12:36:14;15.18;;;13.35;;
34481;SDS011;20720;48.886;9.388;2023-05-02T12:38:40;15.48;;;13.93;;
34481;SDS011;20720;48.886;9.388;2023-05-02T12:41:12;17.73;;;15.60;;
34481;SDS011;20720;48.886;9.388;2023-05-02T12:43:46;16.42;;;14.35;;
34481;SDS011;20720;48.886;9.388;2023-05-02T12:46:13;18.45;;;16.42;;
34481;SDS011;20720;48.886;9.388;2023-05-02T12:48:38;19.52;;;16.85;;
34481;SDS011;20720;48.886;9.388;2023-05-02T12:51:04;19.20;;;16.85;;
34481;SDS011;20720;48.886;9.388;2023-05-02T12:53:41;21.10;;;17.58;;
34481;SDS011;20720;48.886;9.388;2023-05-02T12:56:09;18.90;;;16.73;;
34481;SDS011;20720;48.886;9.388;2023-05-02T12:58:42;19.20;;;17.10;;
34481;SDS011;20720;48.886;9.388;2023-05-02T13:01:10;19.90;;;16.65;;
34481;SDS011;20720;48.886;9.388;2023-05-02T13:03:35;19.42;;;14.88;;
34481;SDS011;20720;48.886;9.388;2023-05-02T13:06:01;18.45;;;14.93;;
34481;SDS011;20720;48.886;9.388;2023-05-02T13:08:27;19.75;;;15.15;;
34481;SDS011;20720;48.886;9.388;2023-05-02T13:10:52;18.45;;;15.75;;
34481;SDS011;20720;48.886;9.388;2023-05-02T13:13:18;18.40;;;15.45;;
34481;SDS011;20720;48.886;9.388;2023-05-02T13:15:43;18.35;;;15.43;;
34481;SDS011;20720;48.886;9.388;2023-05-02T13:18:08;19.45;;;15.60;;
34481;SDS011;20720;48.886;9.388;2023-05-02T13:20:34;19.90;;;16.33;;
34481;SDS011;20720;48.886;9.388;2023-05-02T13:22:59;21.25;;;16.92;;
34481;SDS011;20720;48.886;9.388;2023-05-02T13:25:24;19.52;;;16.17;;
34481;SDS011;20720;48.886;9.388;2023-05-02T13:27:50;19.83;;;16.25;;
34481;SDS011;20720;48.886;9.388;2023-05-02T13:30:16;20.60;;;15.90;;
34481;SDS011;20720;48.886;9.388;2023-05-02T13:32:41;20.35;;;15.68;;
34481;SDS011;20720;48.886;9.388;2023-05-02T13:35:06;18.45;;;14.43;;
34481;SDS011;20720;48.886;9.388;2023-05-02T13:37:32;16.75;;;13.48;;
34481;SDS011;20720;48.886;9.388;2023-05-02T13:39:57;15.90;;;13.30;;
34481;SDS011;20720;48.886;9.388;2023-05-02T13:42:22;15.27;;;12.40;;
34481;SDS011;20720;48.886;9.388;2023-05-02T13:44:48;16.73;;;12.40;;
34481;SDS011;20720;48.886;9.388;2023-05-02T13:47:13;14.70;;;11.65;;
34481;SDS011;20720;48.886;9.388;2023-05-02T13:49:39;13.20;;;10.93;;
34481;SDS011;20720;48.886;9.388;2023-05-02T13:52:04;13.32;;;10.75;;
34481;SDS011;20720;48.886;9.388;2023-05-02T13:54:29;11.73;;;9.43;;
34481;SDS011;20720;48.886;9.388;2023-05-02T13:56:54;11.68;;;10.02;;
34481;SDS011;20720;48.886;9.388;2023-05-02T13:59:20;11.68;;;8.50;;
34481;SDS011;20720;48.886;9.388;2023-05-02T14:01:45;9.88;;;7.95;;
34481;SDS011;20720;48.886;9.388;2023-05-02T14:04:10;8.30;;;7.10;;
34481;SDS011;20720;48.886;9.388;2023-05-02T14:06:36;7.22;;;6.00;;
34481;SDS011;20720;48.886;9.388;2023-05-02T14:09:02;7.97;;;5.78;;
34481;SDS011;20720;48.886;9.388;2023-05-02T14:11:28;7.47;;;5.53;;
34481;SDS011;20720;48.886;9.388;2023-05-02T14:13:53;6.82;;;5.85;;
34481;SDS011;20720;48.886;9.388;2023-05-02T14:16:21;8.02;;;4.65;;
34481;SDS011;20720;48.886;9.388;2023-05-02T14:18:46;5.65;;;4.40;;
34481;SDS011;20720;48.886;9.388;2023-05-02T14:21:13;5.13;;;4.10;;
34481;SDS011;20720;48.886;9.388;2023-05-02T14:23:39;4.95;;;4.03;;
34481;SDS011;20720;48.886;9.388;2023-05-02T14:26:04;5.70;;;4.10;;
34481;SDS011;20720;48.886;9.388;2023-05-02T14:28:29;5.38;;;4.22;;
34481;SDS011;20720;48.886;9.388;2023-05-02T14:30:55;5.07;;;4.07;;
34481;SDS011;20720;48.886;9.388;2023-05-02T14:33:20;4.85;;;4.35;;
34481;SDS011;20720;48.886;9.388;2023-05-02T14:35:45;11.57;;;4.77;;
34481;SDS011;20720;48.886;9.388;2023-05-02T14:38:11;5.40;;;4.32;;
34481;SDS011;20720;48.886;9.388;2023-05-02T14:40:36;6.43;;;4.32;;
34481;SDS011;20720;48.886;9.388;2023-05-02T14:43:02;4.85;;;4.13;;
34481;SDS011;20720;48.886;9.388;2023-05-02T14:45:27;5.38;;;4.45;;
34481;SDS011;20720;48.886;9.388;2023-05-02T14:47:52;6.63;;;5.63;;
34481;SDS011;20720;48.886;9.388;2023-05-02T14:50:17;6.90;;;5.05;;
34481;SDS011;20720;48.886;9.388;2023-05-02T14:52:43;6.18;;;5.10;;
34481;SDS011;20720;48.886;9.388;2023-05-02T14:55:12;8.50;;;5.38;;
34481;SDS011;20720;48.886;9.388;2023-05-02T14:57:37;6.60;;;5.05;;
34481;SDS011;20720;48.886;9.388;2023-05-02T15:00:03;6.68;;;5.32;;
34481;SDS011;20720;48.886;9.388;2023-05-02T15:02:31;6.80;;;5.40;;
34481;SDS011;20720;48.886;9.388;2023-05-02T15:04:57;5.35;;;4.47;;
34481;SDS011;20720;48.886;9.388;2023-05-02T15:07:22;4.87;;;4.30;;
34481;SDS011;20720;48.886;9.388;2023-05-02T15:09:47;4.35;;;3.75;;
34481;SDS011;20720;48.886;9.388;2023-05-02T15:12:13;4.78;;;4.20;;
34481;SDS011;20720;48.886;9.388;2023-05-02T15:14:38;5.87;;;4.47;;
34481;SDS011;20720;48.886;9.388;2023-05-02T15:17:03;7.20;;;4.47;;
34481;SDS011;20720;48.886;9.388;2023-05-02T15:19:28;6.35;;;4.70;;
34481;SDS011;20720;48.886;9.388;2023-05-02T15:21:54;4.80;;;4.22;;
34481;SDS011;20720;48.886;9.388;2023-05-02T15:24:21;5.50;;;4.50;;
34481;SDS011;20720;48.886;9.388;2023-05-02T15:26:48;4.78;;;3.72;;
34481;SDS011;20720;48.886;9.388;2023-05-02T15:29:14;4.93;;;3.75;;
34481;SDS011;20720;48.886;9.388;2023-05-02T15:31:39;7.00;;;4.32;;
34481;SDS011;20720;48.886;9.388;2023-05-02T15:34:04;5.05;;;3.80;;